createdAt,value
2019-03-16T00:01:16.133Z,12.13
2019-03-16T00:04:03.668Z,10.43
2019-03-16T00:06:48.646Z,13.97
2019-03-16T00:09:33.379Z,17.70
2019-03-16T00:12:18.269Z,19.37
2019-03-16T00:15:06.738Z,16.33
2019-03-16T00:17:52.020Z,16.37
2019-03-16T00:20:39.228Z,6.87
2019-03-16T00:23:25.038Z,9.23
2019-03-16T00:26:10.758Z,10.30
2019-03-16T00:28:56.868Z,10.07
2019-03-16T00:31:42.058Z,16.57
2019-03-16T00:34:27.074Z,8.50
2019-03-16T00:37:14.076Z,10.83
2019-03-16T00:39:59.495Z,8.50
2019-03-16T00:42:44.817Z,6.40
2019-03-16T00:45:30.957Z,10.83
2019-03-16T00:48:16.131Z,9.87
2019-03-16T00:51:01.575Z,11.43
2019-03-16T00:53:46.935Z,7.77
2019-03-16T00:56:31.887Z,5.80
2019-03-16T00:59:16.806Z,9.70
2019-03-16T01:02:01.887Z,8.63
2019-03-16T01:04:49.049Z,7.63
2019-03-16T01:07:34.466Z,9.00
2019-03-16T01:10:19.539Z,8.90
2019-03-16T01:13:06.463Z,4.20
2019-03-16T01:15:51.798Z,7.90
2019-03-16T01:18:36.816Z,6.00
2019-03-16T01:21:22.235Z,5.87
2019-03-16T01:24:09.593Z,10.30
2019-03-16T01:26:55.147Z,3.90
2019-03-16T01:29:40.296Z,3.87
2019-03-16T01:32:25.083Z,4.73
2019-03-16T01:35:10.544Z,5.43
2019-03-16T01:37:56.936Z,6.97
2019-03-16T01:40:42.196Z,5.93
2019-03-16T01:43:27.579Z,4.20
2019-03-16T01:46:12.606Z,5.40
2019-03-16T01:48:57.729Z,4.97
2019-03-16T01:51:44.756Z,5.60
2019-03-16T01:54:30.126Z,5.03
2019-03-16T01:57:15.559Z,4.27
2019-03-16T02:00:02.392Z,5.40
2019-03-16T02:02:55.108Z,4.17
2019-03-16T02:05:34.611Z,6.47
2019-03-16T02:08:21.626Z,8.87
2019-03-16T02:11:06.985Z,6.67
2019-03-16T02:13:52.351Z,5.37
2019-03-16T02:16:37.123Z,7.50
2019-03-16T02:19:22.647Z,9.53
2019-03-16T02:22:08.033Z,9.27
2019-03-16T02:24:53.155Z,6.87
2019-03-16T02:27:38.772Z,10.73
2019-03-16T02:30:24.303Z,9.70
2019-03-16T02:33:13.108Z,7.77
2019-03-16T02:35:56.161Z,7.03
2019-03-16T02:38:41.353Z,7.07
2019-03-16T02:41:26.338Z,12.40
2019-03-16T02:44:11.687Z,7.40
2019-03-16T02:46:57.429Z,5.93
2019-03-16T02:49:42.486Z,5.27
2019-03-16T02:52:27.829Z,13.20
2019-03-16T02:55:12.995Z,6.90
2019-03-16T02:57:58.682Z,7.93
2019-03-16T03:00:43.752Z,7.07
2019-03-16T03:03:30.209Z,10.43
2019-03-16T03:06:15.636Z,6.57
2019-03-16T03:09:00.896Z,4.40
2019-03-16T03:11:46.959Z,7.43
2019-03-16T03:14:32.176Z,4.73
2019-03-16T03:17:17.945Z,5.93
2019-03-16T03:20:05.237Z,6.70
2019-03-16T03:22:50.354Z,6.73
2019-03-16T03:25:36.157Z,3.53
2019-03-16T03:28:23.988Z,5.50
2019-03-16T03:31:08.839Z,2.93
2019-03-16T03:34:01.599Z,9.00
2019-03-16T03:36:40.830Z,5.27
2019-03-16T03:39:26.046Z,4.17
2019-03-16T03:42:11.247Z,3.47
2019-03-16T03:44:56.357Z,4.87
2019-03-16T03:47:41.687Z,4.10
2019-03-16T03:50:26.844Z,3.87
2019-03-16T03:53:12.267Z,5.77
2019-03-16T03:55:57.436Z,3.30
2019-03-16T03:58:43.872Z,5.00
2019-03-16T04:01:28.992Z,7.13
2019-03-16T04:04:16.091Z,3.60
2019-03-16T04:07:01.299Z,6.07
2019-03-16T04:09:47.456Z,2.90
2019-03-16T04:12:32.770Z,4.30
2019-03-16T04:15:18.996Z,3.50
2019-03-16T04:18:04.038Z,3.20
2019-03-16T04:20:50.106Z,4.33
2019-03-16T04:23:35.286Z,4.50
2019-03-16T04:26:20.861Z,5.27
2019-03-16T04:29:06.281Z,2.73
2019-03-16T04:31:52.804Z,2.40
2019-03-16T04:34:37.987Z,4.53
2019-03-16T04:37:23.225Z,3.20
2019-03-16T04:40:10.123Z,3.50
2019-03-16T04:42:55.391Z,2.70
2019-03-16T04:45:40.795Z,8.43
2019-03-16T04:48:26.203Z,3.47
2019-03-16T04:51:10.897Z,3.20
2019-03-16T04:53:56.291Z,4.40
2019-03-16T04:56:41.669Z,2.73
2019-03-16T04:59:26.747Z,5.63
2019-03-16T05:02:12.168Z,3.40
2019-03-16T05:04:57.422Z,3.07
2019-03-16T05:07:42.288Z,4.23
2019-03-16T05:10:27.530Z,4.57
2019-03-16T05:13:12.826Z,4.63
2019-03-16T05:15:57.935Z,2.63
2019-03-16T05:18:42.755Z,2.83
2019-03-16T05:21:28.145Z,2.50
2019-03-16T05:24:13.317Z,3.97
2019-03-16T05:26:58.614Z,3.37
2019-03-16T05:29:44.051Z,3.57
2019-03-16T05:32:28.920Z,3.37
2019-03-16T05:35:14.414Z,3.43
2019-03-16T05:37:59.853Z,4.13
2019-03-16T05:40:45.207Z,6.83
2019-03-16T05:43:31.364Z,6.67
2019-03-16T05:46:16.529Z,4.63
2019-03-16T05:49:02.824Z,6.17
2019-03-16T05:51:48.006Z,5.10
2019-03-16T05:54:33.868Z,7.33
2019-03-16T05:57:19.168Z,7.30
2019-03-16T06:00:10.918Z,5.30
2019-03-16T06:02:57.312Z,6.20
2019-03-16T06:05:42.239Z,9.10
2019-03-16T06:08:26.989Z,9.80
2019-03-16T06:11:12.501Z,8.73
2019-03-16T06:13:57.589Z,10.70
2019-03-16T06:16:42.957Z,10.37
2019-03-16T06:19:28.235Z,11.40
2019-03-16T06:22:13.282Z,16.67
2019-03-16T06:24:58.629Z,13.13
2019-03-16T06:27:43.868Z,12.97
2019-03-16T06:30:29.188Z,11.43
2019-03-16T06:33:14.306Z,13.70
2019-03-16T06:35:59.143Z,10.70
2019-03-16T06:38:43.890Z,13.67
2019-03-16T06:41:29.160Z,13.57
2019-03-16T06:44:14.449Z,10.47
2019-03-16T06:46:59.617Z,11.77
2019-03-16T06:49:44.867Z,9.03
2019-03-16T06:52:30.051Z,13.80
2019-03-16T06:55:16.680Z,18.17
2019-03-16T06:58:02.821Z,13.83
2019-03-16T07:00:47.897Z,20.50
2019-03-16T07:03:35.123Z,9.73
2019-03-16T07:06:20.395Z,10.67
2019-03-16T07:09:06.932Z,10.40
2019-03-16T07:11:52.021Z,10.97
2019-03-16T07:14:37.399Z,8.63
2019-03-16T07:17:23.176Z,8.87
2019-03-16T07:20:10.477Z,14.63
2019-03-16T07:22:55.870Z,10.40
2019-03-16T07:25:41.446Z,11.60
2019-03-16T07:28:26.315Z,11.57
2019-03-16T07:31:11.394Z,11.10
2019-03-16T07:33:56.317Z,11.00
2019-03-16T07:36:41.494Z,18.63
2019-03-16T07:39:28.419Z,13.70
2019-03-16T07:42:33.429Z,8.30
2019-03-16T07:45:18.597Z,9.63
2019-03-16T07:48:04.238Z,11.07
2019-03-16T07:50:57.379Z,7.10
2019-03-16T07:53:42.052Z,13.10
2019-03-16T07:56:27.470Z,7.57
2019-03-16T07:59:13.267Z,10.03
2019-03-16T08:01:59.147Z,11.27
2019-03-16T08:04:44.487Z,11.80
2019-03-16T08:07:30.154Z,9.17
2019-03-16T08:10:15.193Z,13.27
2019-03-16T08:13:00.243Z,11.03
2019-03-16T08:15:45.068Z,7.83
2019-03-16T08:18:31.090Z,12.47
2019-03-16T08:21:16.230Z,12.83
2019-03-16T08:24:03.130Z,9.57
2019-03-16T08:26:48.535Z,8.97
2019-03-16T08:29:33.648Z,13.63
2019-03-16T08:32:18.975Z,10.27
2019-03-16T08:35:04.731Z,10.33
2019-03-16T08:37:50.239Z,13.83
2019-03-16T08:40:35.248Z,14.13
2019-03-16T08:43:20.701Z,11.97
2019-03-16T08:46:05.940Z,9.37
2019-03-16T08:50:08.086Z,6.07
2019-03-16T08:52:53.956Z,9.10
2019-03-16T08:55:39.479Z,9.13
2019-03-16T08:58:24.417Z,10.07
2019-03-16T09:01:09.832Z,18.87
2019-03-16T09:03:54.942Z,12.37
2019-03-16T09:06:42.619Z,8.60
2019-03-16T09:09:27.307Z,11.27
2019-03-16T09:12:14.510Z,7.97
2019-03-16T09:14:59.386Z,11.33
2019-03-16T09:17:25.854Z,5.97
2019-03-16T09:19:52.273Z,8.10
2019-03-16T09:22:18.928Z,9.37
2019-03-16T09:24:45.440Z,9.83
2019-03-16T09:27:11.957Z,12.67
2019-03-16T09:29:38.447Z,11.07
2019-03-16T09:32:05.330Z,8.40
2019-03-16T09:34:31.906Z,8.20
2019-03-16T09:36:58.473Z,14.07
2019-03-16T09:39:24.985Z,11.00
2019-03-16T09:41:51.615Z,11.37
2019-03-16T09:44:18.298Z,11.27
2019-03-16T09:46:44.722Z,12.70
2019-03-16T09:49:11.423Z,10.30
2019-03-16T09:51:38.432Z,14.50
2019-03-16T09:54:04.923Z,11.77
2019-03-16T09:56:31.640Z,10.87
2019-03-16T09:58:59.096Z,12.17
2019-03-16T10:01:25.813Z,10.53
2019-03-16T10:03:52.421Z,12.87
2019-03-16T10:06:19.084Z,18.13
2019-03-16T10:08:45.694Z,13.77
2019-03-16T10:11:12.231Z,19.47
2019-03-16T10:13:38.798Z,16.87
2019-03-16T10:16:05.378Z,13.77
2019-03-16T10:18:31.906Z,12.13
2019-03-16T10:20:58.533Z,12.33
2019-03-16T10:23:25.088Z,13.57
2019-03-16T10:25:52.149Z,14.17
2019-03-16T10:28:18.667Z,36.57
2019-03-16T10:30:45.334Z,10.87
2019-03-16T10:33:11.841Z,14.17
2019-03-16T10:35:38.446Z,11.40
2019-03-16T10:38:05.123Z,9.57
2019-03-16T10:40:31.744Z,8.37
2019-03-16T10:42:58.468Z,9.17
2019-03-16T10:45:24.996Z,11.77
2019-03-16T10:47:51.406Z,7.40
2019-03-16T10:50:36.699Z,6.70
2019-03-16T10:53:22.062Z,14.40
2019-03-16T10:56:07.453Z,14.57
2019-03-16T10:58:56.823Z,10.20
2019-03-16T11:01:40.338Z,9.30
2019-03-16T11:04:25.619Z,9.30
2019-03-16T11:07:10.924Z,11.97
2019-03-16T11:09:56.252Z,8.67
2019-03-16T11:12:41.436Z,11.90
2019-03-16T11:15:26.364Z,8.87
2019-03-16T11:18:11.647Z,9.77
2019-03-16T11:20:57.157Z,8.50
2019-03-16T11:23:42.385Z,12.17
2019-03-16T11:26:27.522Z,8.73
2019-03-16T11:29:13.995Z,9.30
2019-03-16T11:31:59.010Z,8.53
2019-03-16T11:34:44.051Z,12.63
2019-03-16T11:37:28.929Z,9.93
2019-03-16T11:40:16.973Z,13.70
2019-03-16T11:43:02.636Z,9.57
2019-03-16T11:45:48.292Z,11.40
2019-03-16T11:48:34.160Z,8.23
2019-03-16T11:51:19.863Z,8.00
2019-03-16T11:54:05.356Z,11.57
2019-03-16T11:56:50.538Z,13.17
2019-03-16T11:59:35.742Z,12.17
2019-03-16T12:02:21.160Z,10.83
2019-03-16T12:05:09.936Z,12.03
2019-03-16T12:07:56.681Z,11.20
2019-03-16T12:10:42.062Z,11.50
2019-03-16T12:13:27.155Z,29.30
2019-03-16T12:16:12.420Z,17.00
2019-03-16T12:18:57.747Z,12.70
2019-03-16T12:21:43.110Z,18.13
2019-03-16T12:24:28.138Z,13.40
2019-03-16T12:27:13.672Z,14.30
2019-03-16T12:29:59.331Z,14.07
2019-03-16T12:32:44.527Z,15.10
2019-03-16T12:35:29.611Z,18.40
2019-03-16T12:38:15.268Z,21.03
2019-03-16T12:41:00.123Z,17.57
2019-03-16T12:43:45.476Z,21.33
2019-03-16T12:46:30.649Z,15.57
2019-03-16T12:49:16.998Z,13.50
2019-03-16T12:52:05.203Z,13.47
2019-03-16T12:54:52.072Z,13.77
2019-03-16T12:57:37.390Z,13.57
2019-03-16T13:00:24.567Z,12.93
2019-03-16T13:03:09.616Z,13.83
2019-03-16T13:05:54.933Z,19.40
2019-03-16T13:08:41.729Z,10.60
2019-03-16T13:11:26.818Z,8.37
2019-03-16T13:14:12.451Z,17.77
2019-03-16T13:16:57.502Z,18.30
2019-03-16T13:19:42.749Z,13.07
2019-03-16T13:22:28.113Z,13.87
2019-03-16T13:25:15.353Z,12.63
2019-03-16T13:28:00.493Z,18.27
2019-03-16T13:30:46.309Z,14.60
2019-03-16T13:33:31.643Z,13.97
2019-03-16T13:36:16.987Z,10.87
2019-03-16T13:39:05.306Z,13.10
2019-03-16T13:41:50.934Z,13.23
2019-03-16T13:44:36.512Z,14.47
2019-03-16T13:47:21.666Z,16.03
2019-03-16T13:50:26.769Z,21.67
2019-03-16T13:53:12.719Z,21.20
2019-03-16T13:55:58.837Z,12.43
2019-03-16T13:58:43.934Z,10.50
2019-03-16T14:01:28.917Z,9.73
2019-03-16T14:04:15.056Z,11.20
2019-03-16T14:07:00.973Z,8.67
2019-03-16T14:09:47.738Z,18.53
2019-03-16T14:12:33.952Z,13.47
2019-03-16T14:15:20.280Z,19.53
2019-03-16T14:18:05.475Z,16.97
2019-03-16T14:20:52.248Z,15.77
2019-03-16T14:23:37.561Z,12.00
2019-03-16T14:26:22.563Z,13.80
2019-03-16T14:29:07.920Z,17.57
2019-03-16T14:31:53.158Z,13.53
2019-03-16T14:34:39.608Z,16.50
2019-03-16T14:37:24.844Z,20.47
2019-03-16T14:40:12.684Z,14.87
2019-03-16T14:42:58.379Z,12.07
2019-03-16T14:45:44.126Z,12.53
2019-03-16T14:48:29.370Z,36.27
2019-03-16T14:51:14.825Z,12.97
2019-03-16T14:54:01.829Z,20.73
2019-03-16T14:56:47.047Z,16.70
2019-03-16T14:59:32.151Z,23.33
2019-03-16T15:02:17.507Z,16.53
2019-03-16T15:05:04.944Z,16.37
2019-03-16T15:07:50.455Z,19.93
2019-03-16T15:10:35.660Z,27.37
2019-03-16T15:13:20.728Z,20.73
2019-03-16T15:16:06.410Z,18.80
2019-03-16T15:18:52.454Z,17.83
2019-03-16T15:21:37.603Z,16.43
2019-03-16T15:24:23.374Z,17.23
2019-03-16T15:27:08.739Z,12.90
2019-03-16T15:29:55.705Z,18.57
2019-03-16T15:32:41.582Z,19.30
2019-03-16T15:35:26.796Z,35.27
2019-03-16T15:38:12.152Z,26.97
2019-03-16T15:40:59.447Z,18.23
2019-03-16T15:43:45.776Z,20.50
2019-03-16T15:46:31.169Z,23.13
2019-03-16T15:49:16.349Z,20.17
2019-03-16T15:52:01.696Z,24.53
2019-03-16T15:54:46.757Z,30.47
2019-03-16T15:57:31.796Z,34.90
2019-03-16T16:00:18.471Z,32.00
2019-03-16T16:03:04.481Z,34.87
2019-03-16T16:05:49.973Z,33.73
2019-03-16T16:08:35.646Z,34.40
2019-03-16T16:11:23.352Z,32.47
2019-03-16T16:14:08.730Z,29.33
2019-03-16T16:16:53.852Z,33.03
2019-03-16T16:19:39.020Z,24.03
2019-03-16T16:22:24.305Z,31.53
2019-03-16T16:25:11.055Z,35.60
2019-03-16T16:27:55.855Z,32.20
2019-03-16T16:30:41.074Z,27.63
2019-03-16T16:33:26.541Z,27.20
2019-03-16T16:36:11.803Z,32.07
2019-03-16T16:38:57.603Z,35.30
2019-03-16T16:41:42.898Z,35.83
2019-03-16T16:44:28.277Z,39.27
2019-03-16T16:47:14.417Z,46.23
2019-03-16T16:49:59.562Z,27.13
2019-03-16T16:52:44.466Z,27.03
2019-03-16T16:55:29.920Z,21.83
2019-03-16T16:58:15.002Z,28.23
2019-03-16T17:01:00.259Z,20.70
2019-03-16T17:03:45.515Z,25.37
2019-03-16T17:06:33.784Z,20.97
2019-03-16T17:09:19.327Z,25.33
2019-03-16T17:12:04.398Z,24.57
2019-03-16T17:14:49.611Z,24.93
2019-03-16T17:17:35.790Z,21.67
2019-03-16T17:20:21.149Z,24.57
2019-03-16T17:23:06.506Z,30.27
2019-03-16T17:25:51.845Z,25.27
2019-03-16T17:28:38.671Z,28.97
2019-03-16T17:31:25.090Z,21.00
2019-03-16T17:34:10.158Z,24.63
2019-03-16T17:36:55.159Z,25.43
2019-03-16T17:39:40.332Z,34.87
2019-03-16T17:42:25.863Z,40.17
2019-03-16T17:45:14.186Z,46.60
2019-03-16T17:48:00.858Z,48.10
2019-03-16T17:50:46.158Z,49.37
2019-03-16T17:53:31.438Z,41.00
2019-03-16T17:56:19.230Z,36.73
2019-03-16T17:59:03.977Z,27.73
2019-03-16T18:01:54.646Z,32.13
2019-03-16T18:04:35.960Z,26.23
2019-03-16T18:07:21.280Z,26.23
2019-03-16T18:10:11.064Z,33.13
2019-03-16T18:12:56.562Z,33.27
2019-03-16T18:15:41.712Z,25.67
2019-03-16T18:18:26.713Z,23.03
2019-03-16T18:21:13.128Z,21.40
2019-03-16T18:23:58.191Z,27.53
2019-03-16T18:26:43.132Z,26.90
2019-03-16T18:29:28.446Z,33.20
2019-03-16T18:32:13.343Z,32.37
2019-03-16T18:34:58.429Z,35.10
2019-03-16T18:37:44.062Z,33.27
2019-03-16T18:40:29.389Z,36.00
2019-03-16T18:43:14.854Z,26.97
2019-03-16T18:45:59.662Z,27.93
2019-03-16T18:48:45.088Z,28.53
2019-03-16T18:51:31.811Z,28.77
2019-03-16T18:54:17.615Z,28.00
2019-03-16T18:57:02.439Z,23.33
2019-03-16T18:59:47.994Z,27.83
2019-03-16T19:02:33.912Z,24.67
2019-03-16T19:05:20.604Z,24.13
2019-03-16T19:08:06.108Z,17.70
2019-03-16T19:10:53.209Z,25.23
2019-03-16T19:13:38.577Z,55.17
2019-03-16T19:16:24.377Z,20.13
2019-03-16T19:19:11.593Z,20.53
2019-03-16T19:21:56.933Z,23.90
2019-03-16T19:24:42.997Z,22.23
2019-03-16T19:27:28.098Z,27.27
2019-03-16T19:30:14.628Z,24.70
2019-03-16T19:33:00.085Z,26.00
2019-03-16T19:35:47.404Z,24.00
2019-03-16T19:38:32.848Z,23.33
2019-03-16T19:41:17.828Z,29.10
2019-03-16T19:44:03.308Z,23.40
2019-03-16T19:46:48.445Z,24.97
2019-03-16T19:49:35.333Z,23.03
2019-03-16T19:52:21.125Z,24.63
2019-03-16T19:55:10.970Z,18.33
2019-03-16T19:57:56.447Z,13.13
2019-03-16T20:00:42.472Z,14.83
2019-03-16T20:03:27.719Z,25.00
2019-03-16T20:06:25.285Z,16.40
2019-03-16T20:09:01.777Z,17.77
2019-03-16T20:11:48.220Z,13.97
2019-03-16T20:14:33.806Z,16.10
2019-03-16T20:17:19.342Z,13.00
2019-03-16T20:20:09.837Z,14.40
2019-03-16T20:22:55.098Z,11.43
2019-03-16T20:26:02.182Z,10.67
2019-03-16T20:28:48.011Z,11.33
2019-03-16T20:31:45.983Z,12.63
2019-03-16T20:34:20.564Z,13.43
2019-03-16T20:37:05.821Z,14.80
2019-03-16T20:39:51.209Z,8.20
2019-03-16T20:42:36.495Z,10.80
2019-03-16T20:45:21.686Z,10.90
2019-03-16T20:48:07.599Z,10.87
2019-03-16T20:50:53.353Z,15.00
2019-03-16T20:53:40.259Z,12.00
2019-03-16T20:56:26.577Z,11.37
2019-03-16T20:59:11.824Z,13.00
2019-03-16T21:01:57.557Z,13.43
2019-03-16T21:04:42.410Z,14.60
2019-03-16T21:07:27.780Z,10.33
2019-03-16T21:10:13.305Z,9.03
2019-03-16T21:12:58.263Z,13.70
2019-03-16T21:15:43.581Z,11.53
2019-03-16T21:18:28.937Z,13.80
2019-03-16T21:21:14.126Z,12.47
2019-03-16T21:23:59.437Z,15.33
2019-03-16T21:26:52.653Z,18.03
2019-03-16T21:29:33.735Z,13.50
2019-03-16T21:32:18.819Z,13.93
2019-03-16T21:35:06.019Z,13.03
2019-03-16T21:37:51.098Z,14.37
2019-03-16T21:40:38.216Z,15.97
2019-03-16T21:43:23.352Z,12.70
2019-03-16T21:46:08.412Z,14.53
2019-03-16T21:48:53.765Z,15.50
2019-03-16T21:51:38.875Z,14.07
2019-03-16T21:54:24.605Z,14.60
2019-03-16T21:57:10.999Z,18.73
2019-03-16T21:59:56.664Z,16.13
2019-03-16T22:02:43.885Z,18.77
2019-03-16T22:05:29.723Z,16.20
2019-03-16T22:08:15.289Z,16.67
2019-03-16T22:11:01.639Z,19.03
2019-03-16T22:13:47.863Z,15.70
2019-03-16T22:16:33.059Z,18.50
2019-03-16T22:19:17.738Z,17.37
2019-03-16T22:22:03.048Z,18.83
2019-03-16T22:24:48.208Z,20.00
2019-03-16T22:27:33.532Z,18.47
2019-03-16T22:30:18.937Z,23.10
2019-03-16T22:33:04.106Z,22.73
2019-03-16T22:35:49.360Z,21.80
2019-03-16T22:38:34.563Z,22.03
2019-03-16T22:41:21.840Z,20.93
2019-03-16T22:44:07.137Z,20.57
2019-03-16T22:46:52.425Z,22.10
2019-03-16T22:49:37.847Z,23.13
2019-03-16T22:52:23.466Z,21.43
2019-03-16T22:55:08.567Z,24.37
2019-03-16T22:57:53.559Z,25.77
2019-03-16T23:00:47.194Z,25.17
2019-03-16T23:03:32.437Z,26.43
2019-03-16T23:06:17.980Z,26.50
2019-03-16T23:09:05.594Z,28.20
2019-03-16T23:11:51.199Z,28.07
2019-03-16T23:14:36.897Z,30.87
2019-03-16T23:17:21.987Z,27.53
2019-03-16T23:20:08.490Z,29.80
2019-03-16T23:22:53.762Z,29.77
2019-03-16T23:25:39.488Z,31.03
2019-03-16T23:28:27.309Z,30.27
2019-03-16T23:31:12.664Z,31.87
2019-03-16T23:33:58.116Z,33.77
2019-03-16T23:36:43.590Z,35.63
2019-03-16T23:39:31.970Z,33.23
2019-03-16T23:42:17.486Z,34.10
2019-03-16T23:45:05.332Z,38.53
2019-03-16T23:47:51.973Z,33.23
2019-03-16T23:50:36.995Z,36.83
2019-03-16T23:53:22.139Z,36.17
2019-03-16T23:56:06.975Z,39.30
2019-03-16T23:58:52.566Z,39.70
